createdAt,value
2022-08-26T00:02:16.830Z,24.03
2022-08-26T00:04:54.398Z,24.00
2022-08-26T00:07:28.285Z,23.98
2022-08-26T00:10:03.180Z,23.95
2022-08-26T00:12:37.678Z,23.89
2022-08-26T00:15:15.150Z,23.89
2022-08-26T00:17:49.107Z,23.88
2022-08-26T00:20:27.319Z,23.86
2022-08-26T00:23:02.019Z,23.82
2022-08-26T00:25:38.117Z,23.78
2022-08-26T00:28:16.797Z,23.75
2022-08-26T00:30:53.032Z,23.74
2022-08-26T00:33:47.247Z,23.72
2022-08-26T00:36:21.326Z,23.69
2022-08-26T00:39:07.449Z,23.64
2022-08-26T00:41:42.294Z,23.61
2022-08-26T00:44:18.565Z,23.57
2022-08-26T00:46:54.813Z,23.54
2022-08-26T00:49:33.192Z,23.50
2022-08-26T00:52:15.329Z,23.47
2022-08-26T00:54:54.838Z,23.46
2022-08-26T00:57:29.455Z,23.44
2022-08-26T01:00:08.433Z,23.42
2022-08-26T01:02:46.851Z,23.39
2022-08-26T01:05:21.962Z,23.37
2022-08-26T01:07:58.390Z,23.35
2022-08-26T01:10:46.359Z,23.35
2022-08-26T01:13:21.615Z,23.35
2022-08-26T01:16:18.396Z,23.36
2022-08-26T01:19:22.234Z,23.37
2022-08-26T01:22:07.441Z,23.37
2022-08-26T01:24:58.470Z,23.34
2022-08-26T01:27:42.130Z,23.31
2022-08-26T01:30:22.464Z,23.30
2022-08-26T01:33:12.708Z,23.29
2022-08-26T01:36:08.433Z,23.27
2022-08-26T01:38:46.145Z,23.24
2022-08-26T01:41:23.736Z,23.23
2022-08-26T01:44:06.848Z,23.24
2022-08-26T01:46:45.126Z,23.21
2022-08-26T01:49:21.235Z,23.17
2022-08-26T01:51:58.629Z,23.15
2022-08-26T01:54:35.880Z,23.11
2022-08-26T01:57:10.101Z,23.07
2022-08-26T01:59:46.916Z,23.04
2022-08-26T02:02:20.795Z,23.05
2022-08-26T02:05:04.022Z,23.02
2022-08-26T02:07:37.689Z,22.97
2022-08-26T02:10:12.830Z,22.95
2022-08-26T02:13:00.504Z,22.95
2022-08-26T02:15:34.758Z,22.94
2022-08-26T02:18:14.083Z,22.92
2022-08-26T02:20:58.657Z,22.88
2022-08-26T02:23:42.030Z,22.83
2022-08-26T02:26:19.947Z,22.82
2022-08-26T02:29:01.748Z,22.78
2022-08-26T02:31:35.733Z,22.74
2022-08-26T02:34:16.005Z,22.70
2022-08-26T02:36:49.783Z,22.68
2022-08-26T02:39:37.252Z,22.63
2022-08-26T02:42:14.297Z,22.56
2022-08-26T02:44:53.187Z,22.48
2022-08-26T02:47:29.348Z,22.43
2022-08-26T02:50:06.813Z,22.42
2022-08-26T02:52:41.824Z,22.40
2022-08-26T02:55:18.970Z,22.35
2022-08-26T02:57:55.461Z,22.32
2022-08-26T03:00:29.213Z,22.29
2022-08-26T03:03:03.015Z,22.29
2022-08-26T03:05:37.334Z,22.28
2022-08-26T03:08:12.181Z,22.27
2022-08-26T03:10:46.748Z,22.26
2022-08-26T03:13:25.109Z,22.25
2022-08-26T03:15:59.140Z,22.25
2022-08-26T03:18:33.585Z,22.23
2022-08-26T03:21:11.261Z,22.23
2022-08-26T03:23:48.740Z,22.19
2022-08-26T03:26:30.388Z,22.14
2022-08-26T03:29:32.923Z,22.11
2022-08-26T03:32:07.435Z,22.10
2022-08-26T03:34:40.975Z,22.09
2022-08-26T03:37:34.621Z,22.08
2022-08-26T03:40:14.088Z,22.08
2022-08-26T03:42:58.910Z,22.04
2022-08-26T03:45:33.259Z,22.02
2022-08-26T03:48:07.167Z,22.03
2022-08-26T03:50:43.737Z,22.03
2022-08-26T03:53:17.021Z,22.06
2022-08-26T03:56:15.145Z,22.10
2022-08-26T03:58:51.595Z,22.12
2022-08-26T04:01:25.764Z,22.15
2022-08-26T04:04:00.644Z,22.17
2022-08-26T04:06:36.838Z,22.18
2022-08-26T04:09:13.621Z,22.21
2022-08-26T04:11:50.708Z,22.24
2022-08-26T04:14:27.701Z,22.25
2022-08-26T04:17:01.142Z,22.28
2022-08-26T04:19:34.541Z,22.28
2022-08-26T04:22:08.834Z,22.31
2022-08-26T04:24:46.823Z,22.34
2022-08-26T04:27:20.535Z,22.38
2022-08-26T04:30:06.194Z,22.40
2022-08-26T04:32:42.151Z,22.41
2022-08-26T04:35:16.159Z,22.43
2022-08-26T04:37:50.789Z,22.48
2022-08-26T04:40:28.067Z,22.54
2022-08-26T04:43:06.151Z,22.61
2022-08-26T04:45:41.944Z,22.65
2022-08-26T04:48:16.807Z,22.70
2022-08-26T04:50:50.586Z,22.77
2022-08-26T04:53:25.378Z,22.86
2022-08-26T04:55:59.149Z,22.93
2022-08-26T04:58:36.001Z,23.01
2022-08-26T05:01:19.610Z,23.12
2022-08-26T05:03:53.298Z,23.17
2022-08-26T05:06:48.589Z,23.25
2022-08-26T05:09:24.674Z,23.29
2022-08-26T05:11:58.707Z,23.38
2022-08-26T05:14:32.243Z,23.49
2022-08-26T05:17:08.670Z,23.68
2022-08-26T05:19:42.852Z,23.94
2022-08-26T05:22:21.675Z,24.21
2022-08-26T05:24:58.989Z,24.35
2022-08-26T05:27:32.748Z,24.47
2022-08-26T05:30:07.868Z,24.69
2022-08-26T05:32:43.290Z,24.84
2022-08-26T05:35:20.338Z,24.91
2022-08-26T05:37:59.390Z,25.02
2022-08-26T05:40:35.283Z,25.16
2022-08-26T05:43:10.926Z,25.36
2022-08-26T05:45:47.133Z,25.58
2022-08-26T05:48:24.454Z,25.82
2022-08-26T05:50:58.658Z,26.06
2022-08-26T05:53:32.489Z,26.34
2022-08-26T05:56:07.354Z,26.60
2022-08-26T05:58:43.054Z,26.97
2022-08-26T06:01:24.135Z,27.33
2022-08-26T06:04:01.837Z,27.31
2022-08-26T06:06:56.253Z,27.28
2022-08-26T06:09:29.750Z,27.29
2022-08-26T06:12:08.182Z,27.32
2022-08-26T06:14:41.313Z,27.44
2022-08-26T06:17:15.298Z,27.59
2022-08-26T06:19:48.971Z,27.92
2022-08-26T06:22:40.012Z,28.10
2022-08-26T06:25:31.211Z,28.14
2022-08-26T06:28:05.589Z,28.49
2022-08-26T06:30:42.928Z,29.12
2022-08-26T06:33:16.620Z,29.50
2022-08-26T06:35:51.297Z,29.58
2022-08-26T06:38:24.729Z,29.64
2022-08-26T06:40:59.775Z,29.92
2022-08-26T06:43:33.802Z,31.20
2022-08-26T06:46:10.852Z,33.23
2022-08-26T06:48:43.507Z,35.34
2022-08-26T06:51:19.460Z,37.10
2022-08-26T06:53:59.636Z,38.59
2022-08-26T06:56:51.784Z,39.93
2022-08-26T06:59:28.836Z,40.73
2022-08-26T07:02:10.912Z,41.64
2022-08-26T07:04:47.831Z,42.85
2022-08-26T07:07:22.174Z,44.06
2022-08-26T07:09:56.395Z,45.02
2022-08-26T07:12:30.370Z,45.86
2022-08-26T07:15:03.952Z,46.32
2022-08-26T07:17:38.113Z,46.61
2022-08-26T07:20:13.346Z,47.30
2022-08-26T07:22:50.183Z,48.33
2022-08-26T07:25:24.111Z,49.00
2022-08-26T07:27:58.344Z,49.43
2022-08-26T07:30:34.702Z,50.01
2022-08-26T07:33:08.212Z,50.30
2022-08-26T07:35:42.057Z,50.37
2022-08-26T07:38:15.528Z,50.67
2022-08-26T07:40:49.066Z,51.06
2022-08-26T07:43:22.900Z,50.92
2022-08-26T07:45:58.108Z,49.90
2022-08-26T07:48:31.667Z,48.65
2022-08-26T07:51:08.194Z,47.86
2022-08-26T07:53:41.769Z,47.09
2022-08-26T07:56:16.265Z,46.11
2022-08-26T07:58:51.453Z,44.73
2022-08-26T08:01:46.717Z,43.30
2022-08-26T08:04:26.103Z,42.27
2022-08-26T08:07:05.319Z,41.32
2022-08-26T08:09:49.819Z,40.58
2022-08-26T08:12:44.175Z,40.11
2022-08-26T08:15:26.925Z,40.46
2022-08-26T08:18:04.221Z,41.77
2022-08-26T08:20:38.348Z,42.27
2022-08-26T08:23:20.826Z,41.46
2022-08-26T08:26:15.695Z,40.28
2022-08-26T08:28:58.180Z,39.63
2022-08-26T08:34:29.279Z,38.36
2022-08-26T08:37:04.369Z,37.85
2022-08-26T08:39:41.773Z,37.68
2022-08-26T08:42:45.953Z,38.00
2022-08-26T08:45:36.291Z,38.78
2022-08-26T08:48:15.537Z,39.19
2022-08-26T08:50:52.142Z,39.33
2022-08-26T08:53:35.240Z,38.90
2022-08-26T08:56:20.970Z,38.35
2022-08-26T08:59:04.943Z,37.99
2022-08-26T09:01:54.166Z,37.52
2022-08-26T09:05:08.223Z,37.17
2022-08-26T09:07:50.667Z,36.70
2022-08-26T09:10:37.235Z,36.47
2022-08-26T09:13:16.347Z,36.23
2022-08-26T09:16:00.756Z,35.92
2022-08-26T09:18:54.467Z,35.69
2022-08-26T09:21:30.912Z,35.44
2022-08-26T09:24:14.018Z,35.14
2022-08-26T09:26:49.188Z,35.03
2022-08-26T09:29:50.232Z,34.97
2022-08-26T09:32:27.776Z,34.91
2022-08-26T09:35:07.747Z,34.84
2022-08-26T09:40:34.616Z,34.86
2022-08-26T09:43:22.708Z,34.84
2022-08-26T09:46:12.582Z,34.71
2022-08-26T09:48:53.029Z,34.53
2022-08-26T09:51:34.932Z,34.39
2022-08-26T09:54:30.093Z,34.26
2022-08-26T09:57:27.675Z,34.16
2022-08-26T10:00:02.793Z,34.06
2022-08-26T10:02:47.668Z,33.96
2022-08-26T10:05:43.660Z,33.82
2022-08-26T10:08:35.707Z,33.71
2022-08-26T10:11:19.762Z,33.64
2022-08-26T10:14:00.395Z,33.55
2022-08-26T10:16:41.786Z,33.49
2022-08-26T10:19:19.102Z,33.44
2022-08-26T10:22:01.794Z,33.43
2022-08-26T10:24:39.951Z,33.41
2022-08-26T10:27:25.382Z,33.41
2022-08-26T10:30:07.271Z,33.49
2022-08-26T10:32:47.258Z,33.55
2022-08-26T10:35:24.213Z,33.57
2022-08-26T10:38:21.866Z,33.58
2022-08-26T10:41:02.070Z,33.58
2022-08-26T10:43:43.636Z,33.67
2022-08-26T10:46:22.784Z,33.67
2022-08-26T10:49:15.787Z,33.76
2022-08-26T10:51:59.798Z,33.82
2022-08-26T10:54:54.902Z,33.92
2022-08-26T10:57:41.105Z,33.98
2022-08-26T11:00:38.561Z,34.00
2022-08-26T11:03:27.994Z,33.98
2022-08-26T11:06:34.194Z,33.85
2022-08-26T11:09:11.849Z,33.71
2022-08-26T11:11:54.498Z,33.78
2022-08-26T11:14:58.851Z,33.94
2022-08-26T11:18:01.978Z,34.06
2022-08-26T11:20:42.193Z,34.09
2022-08-26T11:23:50.226Z,34.17
2022-08-26T11:26:56.339Z,34.24
2022-08-26T11:30:05.771Z,34.22
2022-08-26T11:33:00.956Z,34.23
2022-08-26T11:35:54.007Z,34.20
2022-08-26T11:38:31.020Z,34.19
2022-08-26T11:41:14.190Z,34.22
2022-08-26T11:43:52.469Z,34.20
2022-08-26T11:46:36.344Z,34.23
2022-08-26T11:49:13.345Z,34.27
2022-08-26T11:51:48.363Z,34.32
2022-08-26T11:54:30.777Z,34.27
2022-08-26T11:57:15.066Z,34.06
2022-08-26T11:59:51.736Z,33.88
2022-08-26T12:02:28.298Z,33.75
2022-08-26T12:05:05.000Z,33.65
2022-08-26T12:07:38.940Z,33.55
2022-08-26T12:10:33.898Z,33.56
2022-08-26T12:13:26.464Z,33.61
2022-08-26T12:16:01.986Z,33.80
2022-08-26T12:18:38.433Z,34.51
2022-08-26T12:21:22.446Z,35.16
2022-08-26T12:23:59.655Z,35.10
2022-08-26T12:26:37.008Z,34.77
2022-08-26T12:29:26.660Z,34.46
2022-08-26T12:32:14.743Z,34.12
2022-08-26T12:34:50.660Z,33.80
2022-08-26T12:37:24.527Z,33.61
2022-08-26T12:40:41.285Z,33.51
2022-08-26T12:43:17.582Z,33.44
2022-08-26T12:46:09.368Z,33.48
2022-08-26T12:48:49.259Z,33.58
2022-08-26T12:51:28.194Z,33.73
2022-08-26T12:54:07.253Z,33.83
2022-08-26T12:56:43.422Z,33.85
2022-08-26T12:59:26.310Z,34.14
2022-08-26T13:02:02.755Z,34.75
2022-08-26T13:04:46.568Z,35.07
2022-08-26T13:07:25.882Z,34.96
2022-08-26T13:10:01.348Z,34.77
2022-08-26T13:12:38.562Z,34.62
2022-08-26T13:15:12.883Z,34.41
2022-08-26T13:17:46.346Z,34.24
2022-08-26T13:20:20.549Z,34.11
2022-08-26T13:23:00.988Z,34.00
2022-08-26T13:25:34.796Z,33.98
2022-08-26T13:28:08.747Z,34.04
2022-08-26T13:30:44.814Z,34.12
2022-08-26T13:33:19.220Z,34.14
2022-08-26T13:35:57.288Z,34.04
2022-08-26T13:38:34.717Z,33.88
2022-08-26T13:41:13.325Z,33.74
2022-08-26T13:43:49.559Z,33.76
2022-08-26T13:46:32.663Z,33.77
2022-08-26T13:49:07.341Z,33.62
2022-08-26T13:51:41.063Z,33.42
2022-08-26T13:54:14.810Z,33.27
2022-08-26T13:56:48.604Z,33.14
2022-08-26T13:59:22.789Z,33.08
2022-08-26T14:01:56.706Z,33.12
2022-08-26T14:04:32.200Z,33.15
2022-08-26T14:07:05.933Z,33.21
2022-08-26T14:09:39.314Z,33.29
2022-08-26T14:12:16.968Z,33.35
2022-08-26T14:14:50.651Z,33.38
2022-08-26T14:17:26.763Z,33.35
2022-08-26T14:20:04.583Z,33.28
2022-08-26T14:22:43.726Z,33.18
2022-08-26T14:25:35.038Z,33.09
2022-08-26T14:28:09.274Z,33.07
2022-08-26T14:30:44.467Z,33.07
2022-08-26T14:33:19.942Z,33.01
2022-08-26T14:36:14.853Z,32.94
2022-08-26T14:38:48.849Z,32.85
2022-08-26T14:41:23.397Z,32.74
2022-08-26T14:44:03.912Z,32.62
2022-08-26T14:46:44.340Z,32.54
2022-08-26T14:49:22.106Z,32.55
2022-08-26T14:51:55.681Z,32.55
2022-08-26T14:54:29.811Z,32.55
2022-08-26T14:57:05.314Z,32.59
2022-08-26T14:59:45.467Z,32.61
2022-08-26T15:02:33.295Z,32.67
2022-08-26T15:05:08.888Z,32.69
2022-08-26T15:07:42.234Z,32.72
2022-08-26T15:10:17.241Z,32.76
2022-08-26T15:12:50.911Z,32.71
2022-08-26T15:15:24.253Z,32.70
2022-08-26T15:17:59.918Z,32.65
2022-08-26T15:23:12.384Z,32.61
2022-08-26T15:25:49.163Z,32.59
2022-08-26T15:28:23.288Z,32.54
2022-08-26T15:30:56.554Z,32.47
2022-08-26T15:33:33.425Z,32.42
2022-08-26T15:36:08.933Z,32.37
2022-08-26T15:38:43.915Z,32.35
2022-08-26T15:41:17.384Z,32.35
2022-08-26T15:43:50.808Z,32.35
2022-08-26T15:46:24.089Z,32.34
2022-08-26T15:48:57.446Z,32.33
2022-08-26T15:51:35.753Z,32.33
2022-08-26T15:54:21.096Z,32.33
2022-08-26T15:56:55.251Z,32.32
2022-08-26T15:59:38.876Z,32.33
2022-08-26T16:02:21.126Z,32.31
2022-08-26T16:04:54.676Z,32.30
2022-08-26T16:07:30.520Z,32.28
2022-08-26T16:10:04.427Z,32.23
2022-08-26T16:12:40.276Z,32.20
2022-08-26T16:15:15.164Z,32.17
2022-08-26T16:17:55.754Z,32.12
2022-08-26T16:20:29.134Z,32.09
2022-08-26T16:23:03.364Z,32.06
2022-08-26T16:25:37.230Z,32.01
2022-08-26T16:28:11.567Z,31.98
2022-08-26T16:30:46.284Z,31.95
2022-08-26T16:33:21.562Z,31.90
2022-08-26T16:36:03.134Z,31.85
2022-08-26T16:38:37.930Z,31.82
2022-08-26T16:41:14.359Z,31.78
2022-08-26T16:43:48.471Z,31.73
2022-08-26T16:46:33.102Z,31.66
2022-08-26T16:49:07.283Z,31.59
2022-08-26T16:51:41.050Z,31.54
2022-08-26T16:54:14.607Z,31.48
2022-08-26T16:56:51.580Z,31.43
2022-08-26T16:59:25.631Z,31.41
2022-08-26T17:01:59.228Z,31.35
2022-08-26T17:04:33.112Z,31.30
2022-08-26T17:07:06.884Z,31.24
2022-08-26T17:09:41.886Z,31.19
2022-08-26T17:12:15.243Z,31.15
2022-08-26T17:14:48.878Z,31.13
2022-08-26T17:17:23.181Z,31.08
2022-08-26T17:19:56.520Z,31.02
2022-08-26T17:22:34.670Z,30.97
2022-08-26T17:25:23.130Z,30.92
2022-08-26T17:28:00.532Z,30.85
2022-08-26T17:30:34.688Z,30.79
2022-08-26T17:33:11.018Z,30.72
2022-08-26T17:35:45.064Z,30.66
2022-08-26T17:38:19.102Z,30.60
2022-08-26T17:40:53.269Z,30.54
2022-08-26T17:43:27.836Z,30.49
2022-08-26T17:46:07.387Z,30.42
2022-08-26T17:48:42.262Z,30.32
2022-08-26T17:51:17.573Z,30.22
2022-08-26T17:53:52.630Z,30.14
2022-08-26T17:56:46.141Z,30.04
2022-08-26T17:59:20.289Z,29.95
2022-08-26T18:01:55.905Z,29.87
2022-08-26T18:04:29.563Z,29.79
2022-08-26T18:07:03.152Z,29.71
2022-08-26T18:09:36.412Z,29.64
2022-08-26T18:12:11.508Z,29.55
2022-08-26T18:14:45.675Z,29.47
2022-08-26T18:17:19.673Z,29.40
2022-08-26T18:19:55.873Z,29.32
2022-08-26T18:22:29.398Z,29.23
2022-08-26T18:25:05.238Z,29.17
2022-08-26T18:27:40.177Z,29.11
2022-08-26T18:30:20.997Z,29.05
2022-08-26T18:32:55.291Z,28.98
2022-08-26T18:35:30.661Z,28.91
2022-08-26T18:38:11.026Z,28.84
2022-08-26T18:40:52.709Z,28.78
2022-08-26T18:43:26.427Z,28.71
2022-08-26T18:46:07.283Z,28.65
2022-08-26T18:48:41.850Z,28.58
2022-08-26T18:51:21.425Z,28.53
2022-08-26T18:53:55.254Z,28.49
2022-08-26T18:56:29.311Z,28.45
2022-08-26T18:59:04.020Z,28.40
2022-08-26T19:01:39.582Z,28.36
2022-08-26T19:04:15.419Z,28.30
2022-08-26T19:06:51.182Z,28.25
2022-08-26T19:09:26.731Z,28.21
2022-08-26T19:12:04.100Z,28.15
2022-08-26T19:14:39.363Z,28.11
2022-08-26T19:17:13.920Z,28.08
2022-08-26T19:19:48.170Z,28.03
2022-08-26T19:22:22.901Z,27.98
2022-08-26T19:24:59.920Z,27.92
2022-08-26T19:27:34.700Z,27.88
2022-08-26T19:30:10.638Z,27.85
2022-08-26T19:32:44.943Z,27.81
2022-08-26T19:35:19.154Z,27.75
2022-08-26T19:37:53.270Z,27.71
2022-08-26T19:40:27.305Z,27.65
2022-08-26T19:43:01.257Z,27.59
2022-08-26T19:45:35.662Z,27.54
2022-08-26T19:48:12.100Z,27.50
2022-08-26T19:50:47.203Z,27.46
2022-08-26T19:53:21.084Z,27.42
2022-08-26T19:55:54.850Z,27.36
2022-08-26T19:58:28.719Z,27.30
2022-08-26T20:01:03.041Z,27.26
2022-08-26T20:03:37.427Z,27.23
2022-08-26T20:06:13.480Z,27.19
2022-08-26T20:08:48.189Z,27.16
2022-08-26T20:11:24.789Z,27.15
2022-08-26T20:14:01.342Z,27.10
2022-08-26T20:16:35.164Z,27.04
2022-08-26T20:19:27.493Z,26.97
2022-08-26T20:22:04.533Z,26.92
2022-08-26T20:24:38.380Z,26.90
2022-08-26T20:27:12.341Z,26.85
2022-08-26T20:29:46.905Z,26.82
2022-08-26T20:32:20.737Z,26.77
2022-08-26T20:34:56.060Z,26.72
2022-08-26T20:37:42.895Z,26.67
2022-08-26T20:40:21.576Z,26.61
2022-08-26T20:42:55.231Z,26.57
2022-08-26T20:45:29.236Z,26.54
2022-08-26T20:48:03.030Z,26.51
2022-08-26T20:50:37.717Z,26.46
2022-08-26T20:53:11.416Z,26.42
2022-08-26T20:55:50.772Z,26.38
2022-08-26T20:58:36.610Z,26.32
2022-08-26T21:01:20.918Z,26.25
2022-08-26T21:03:58.484Z,26.19
2022-08-26T21:06:35.318Z,26.15
2022-08-26T21:09:19.285Z,26.10
2022-08-26T21:12:12.840Z,25.99
2022-08-26T21:14:49.497Z,25.95
2022-08-26T21:17:23.827Z,25.92
2022-08-26T21:19:57.564Z,25.90
2022-08-26T21:22:32.360Z,25.88
2022-08-26T21:25:06.696Z,25.88
2022-08-26T21:27:43.047Z,25.87
2022-08-26T21:30:17.895Z,25.87
2022-08-26T21:32:51.861Z,25.85
2022-08-26T21:35:25.674Z,25.86
2022-08-26T21:37:59.292Z,25.87
2022-08-26T21:41:02.844Z,25.88
2022-08-26T21:43:40.131Z,25.87
2022-08-26T21:46:16.076Z,25.87
2022-08-26T21:49:12.059Z,25.87
2022-08-26T21:51:47.536Z,25.87
2022-08-26T21:54:24.461Z,25.89
2022-08-26T21:57:01.441Z,25.88
2022-08-26T21:59:35.160Z,25.88
2022-08-26T22:02:09.111Z,25.88
2022-08-26T22:04:45.708Z,25.86
2022-08-26T22:07:22.381Z,25.85
2022-08-26T22:09:56.463Z,25.82
2022-08-26T22:12:30.304Z,25.79
2022-08-26T22:15:04.192Z,25.76
2022-08-26T22:17:38.295Z,25.73
2022-08-26T22:20:16.502Z,25.71
2022-08-26T22:22:50.384Z,25.71
2022-08-26T22:25:27.679Z,25.70
2022-08-26T22:28:01.989Z,25.71
2022-08-26T22:30:35.996Z,25.71
2022-08-26T22:33:09.876Z,25.71
2022-08-26T22:36:03.963Z,25.70
2022-08-26T22:38:37.946Z,25.68
2022-08-26T22:41:24.642Z,25.65
2022-08-26T22:44:09.203Z,25.65
2022-08-26T22:46:55.871Z,25.64
2022-08-26T22:49:49.790Z,25.64
2022-08-26T22:52:32.625Z,25.61
2022-08-26T22:55:06.786Z,25.59
2022-08-26T22:58:00.503Z,25.57
2022-08-26T23:00:37.747Z,25.57
2022-08-26T23:03:31.602Z,25.55
2022-08-26T23:06:25.615Z,25.55
2022-08-26T23:09:20.391Z,25.53
2022-08-26T23:12:01.784Z,25.49
2022-08-26T23:14:37.987Z,25.47
2022-08-26T23:17:14.702Z,25.47
2022-08-26T23:19:51.305Z,25.47
2022-08-26T23:22:35.520Z,25.45
2022-08-26T23:25:11.355Z,25.43
2022-08-26T23:27:54.919Z,25.41
2022-08-26T23:30:39.014Z,25.38
2022-08-26T23:33:13.026Z,25.36
2022-08-26T23:36:07.143Z,25.34
2022-08-26T23:38:54.141Z,25.29
2022-08-26T23:41:38.722Z,25.26
2022-08-26T23:44:22.467Z,25.26
2022-08-26T23:47:08.125Z,25.23
2022-08-26T23:50:01.843Z,25.20
2022-08-26T23:53:09.434Z,25.19
2022-08-26T23:56:03.484Z,25.15
2022-08-26T23:58:37.340Z,25.09
